sensor_id;sensor_type;location;lat;lon;timestamp;P1;durP1;ratioP1;P2;durP2;ratioP2
83747;SDS011;73737;52.364;17.120;2023-12-29T00:02:06;10.00;;;6.00;;
83747;SDS011;73737;52.364;17.120;2023-12-29T00:04:35;9.30;;;6.30;;
83747;SDS011;73737;52.364;17.120;2023-12-29T00:07:04;10.20;;;6.60;;
83747;SDS011;73737;52.364;17.120;2023-12-29T00:09:33;11.50;;;6.80;;
83747;SDS011;73737;52.364;17.120;2023-12-29T00:12:08;11.50;;;6.60;;
83747;SDS011;73737;52.364;17.120;2023-12-29T00:14:38;13.00;;;6.90;;
83747;SDS011;73737;52.364;17.120;2023-12-29T00:17:08;11.90;;;6.40;;
83747;SDS011;73737;52.364;17.120;2023-12-29T00:19:36;9.40;;;6.20;;
83747;SDS011;73737;52.364;17.120;2023-12-29T00:22:05;12.70;;;6.50;;
83747;SDS011;73737;52.364;17.120;2023-12-29T00:24:34;9.20;;;6.30;;
83747;SDS011;73737;52.364;17.120;2023-12-29T00:27:04;10.40;;;6.50;;
83747;SDS011;73737;52.364;17.120;2023-12-29T00:29:33;11.10;;;6.80;;
83747;SDS011;73737;52.364;17.120;2023-12-29T00:32:02;10.90;;;6.70;;
83747;SDS011;73737;52.364;17.120;2023-12-29T00:34:33;9.60;;;6.20;;
83747;SDS011;73737;52.364;17.120;2023-12-29T00:37:09;11.70;;;6.70;;
83747;SDS011;73737;52.364;17.120;2023-12-29T00:39:38;13.60;;;7.70;;
83747;SDS011;73737;52.364;17.120;2023-12-29T00:42:13;10.40;;;6.10;;
83747;SDS011;73737;52.364;17.120;2023-12-29T00:44:42;10.30;;;5.90;;
83747;SDS011;73737;52.364;17.120;2023-12-29T00:47:10;10.80;;;6.60;;
83747;SDS011;73737;52.364;17.120;2023-12-29T00:49:39;11.90;;;6.70;;
83747;SDS011;73737;52.364;17.120;2023-12-29T00:52:11;10.30;;;5.80;;
83747;SDS011;73737;52.364;17.120;2023-12-29T00:54:40;10.70;;;5.80;;
83747;SDS011;73737;52.364;17.120;2023-12-29T00:57:09;12.50;;;7.00;;
83747;SDS011;73737;52.364;17.120;2023-12-29T00:59:37;10.50;;;7.00;;
83747;SDS011;73737;52.364;17.120;2023-12-29T01:02:09;12.50;;;6.10;;
83747;SDS011;73737;52.364;17.120;2023-12-29T01:04:38;11.30;;;5.40;;
83747;SDS011;73737;52.364;17.120;2023-12-29T01:07:09;10.40;;;6.10;;
83747;SDS011;73737;52.364;17.120;2023-12-29T01:09:38;10.60;;;6.00;;
83747;SDS011;73737;52.364;17.120;2023-12-29T01:12:08;10.40;;;5.90;;
83747;SDS011;73737;52.364;17.120;2023-12-29T01:14:36;8.70;;;5.50;;
83747;SDS011;73737;52.364;17.120;2023-12-29T01:17:05;10.00;;;6.70;;
83747;SDS011;73737;52.364;17.120;2023-12-29T01:19:34;9.40;;;6.20;;
83747;SDS011;73737;52.364;17.120;2023-12-29T01:22:03;9.30;;;5.50;;
83747;SDS011;73737;52.364;17.120;2023-12-29T01:24:31;10.80;;;6.00;;
83747;SDS011;73737;52.364;17.120;2023-12-29T01:27:00;7.40;;;5.30;;
83747;SDS011;73737;52.364;17.120;2023-12-29T01:29:32;10.00;;;5.90;;
83747;SDS011;73737;52.364;17.120;2023-12-29T01:32:02;9.60;;;5.30;;
83747;SDS011;73737;52.364;17.120;2023-12-29T01:34:31;9.30;;;5.40;;
83747;SDS011;73737;52.364;17.120;2023-12-29T01:37:02;8.60;;;6.20;;
83747;SDS011;73737;52.364;17.120;2023-12-29T01:39:33;8.70;;;5.80;;
83747;SDS011;73737;52.364;17.120;2023-12-29T01:42:02;8.40;;;5.20;;
83747;SDS011;73737;52.364;17.120;2023-12-29T01:44:33;11.70;;;6.50;;
83747;SDS011;73737;52.364;17.120;2023-12-29T01:47:01;9.60;;;5.30;;
83747;SDS011;73737;52.364;17.120;2023-12-29T01:49:34;8.70;;;5.80;;
83747;SDS011;73737;52.364;17.120;2023-12-29T01:52:03;10.00;;;6.10;;
83747;SDS011;73737;52.364;17.120;2023-12-29T01:54:34;9.20;;;5.90;;
83747;SDS011;73737;52.364;17.120;2023-12-29T01:57:06;10.70;;;6.00;;
83747;SDS011;73737;52.364;17.120;2023-12-29T01:59:36;11.20;;;5.70;;
83747;SDS011;73737;52.364;17.120;2023-12-29T02:02:06;7.90;;;5.40;;
83747;SDS011;73737;52.364;17.120;2023-12-29T02:04:35;10.20;;;5.70;;
83747;SDS011;73737;52.364;17.120;2023-12-29T02:07:06;8.70;;;5.70;;
83747;SDS011;73737;52.364;17.120;2023-12-29T02:09:35;8.80;;;5.40;;
83747;SDS011;73737;52.364;17.120;2023-12-29T02:12:04;7.70;;;4.40;;
83747;SDS011;73737;52.364;17.120;2023-12-29T02:14:33;8.60;;;5.30;;
83747;SDS011;73737;52.364;17.120;2023-12-29T02:17:06;7.50;;;5.20;;
83747;SDS011;73737;52.364;17.120;2023-12-29T02:19:51;8.90;;;5.00;;
83747;SDS011;73737;52.364;17.120;2023-12-29T02:22:20;6.50;;;4.30;;
83747;SDS011;73737;52.364;17.120;2023-12-29T02:24:49;9.00;;;5.20;;
83747;SDS011;73737;52.364;17.120;2023-12-29T02:33:05;6.00;;;3.70;;
83747;SDS011;73737;52.364;17.120;2023-12-29T02:35:38;6.80;;;4.50;;
83747;SDS011;73737;52.364;17.120;2023-12-29T02:38:07;6.00;;;5.00;;
83747;SDS011;73737;52.364;17.120;2023-12-29T02:40:36;6.20;;;4.60;;
83747;SDS011;73737;52.364;17.120;2023-12-29T02:43:05;6.90;;;5.00;;
83747;SDS011;73737;52.364;17.120;2023-12-29T02:45:37;8.40;;;5.60;;
83747;SDS011;73737;52.364;17.120;2023-12-29T02:48:05;7.50;;;4.40;;
83747;SDS011;73737;52.364;17.120;2023-12-29T02:50:35;7.60;;;4.70;;
83747;SDS011;73737;52.364;17.120;2023-12-29T02:53:04;6.20;;;4.20;;
83747;SDS011;73737;52.364;17.120;2023-12-29T02:55:33;7.60;;;4.50;;
83747;SDS011;73737;52.364;17.120;2023-12-29T02:58:01;7.50;;;3.90;;
83747;SDS011;73737;52.364;17.120;2023-12-29T03:00:30;8.30;;;4.00;;
83747;SDS011;73737;52.364;17.120;2023-12-29T03:02:59;6.70;;;4.60;;
83747;SDS011;73737;52.364;17.120;2023-12-29T03:05:27;9.30;;;4.30;;
83747;SDS011;73737;52.364;17.120;2023-12-29T03:07:56;5.50;;;4.50;;
83747;SDS011;73737;52.364;17.120;2023-12-29T03:10:26;5.70;;;4.10;;
83747;SDS011;73737;52.364;17.120;2023-12-29T03:12:54;5.90;;;4.10;;
83747;SDS011;73737;52.364;17.120;2023-12-29T03:15:23;6.40;;;4.00;;
83747;SDS011;73737;52.364;17.120;2023-12-29T03:17:52;6.80;;;3.90;;
83747;SDS011;73737;52.364;17.120;2023-12-29T03:20:20;5.40;;;3.90;;
83747;SDS011;73737;52.364;17.120;2023-12-29T03:22:49;5.40;;;3.70;;
83747;SDS011;73737;52.364;17.120;2023-12-29T03:25:18;5.70;;;4.10;;
83747;SDS011;73737;52.364;17.120;2023-12-29T03:27:46;5.50;;;4.00;;
83747;SDS011;73737;52.364;17.120;2023-12-29T03:30:14;5.70;;;4.10;;
83747;SDS011;73737;52.364;17.120;2023-12-29T03:32:45;7.00;;;3.90;;
83747;SDS011;73737;52.364;17.120;2023-12-29T03:35:13;7.20;;;4.60;;
83747;SDS011;73737;52.364;17.120;2023-12-29T03:37:43;8.50;;;4.00;;
83747;SDS011;73737;52.364;17.120;2023-12-29T03:40:12;6.20;;;4.30;;
83747;SDS011;73737;52.364;17.120;2023-12-29T03:42:41;7.00;;;4.70;;
83747;SDS011;73737;52.364;17.120;2023-12-29T03:45:10;8.30;;;4.90;;
83747;SDS011;73737;52.364;17.120;2023-12-29T03:47:39;6.70;;;4.70;;
83747;SDS011;73737;52.364;17.120;2023-12-29T03:50:07;6.00;;;4.20;;
83747;SDS011;73737;52.364;17.120;2023-12-29T03:52:36;6.40;;;3.90;;
83747;SDS011;73737;52.364;17.120;2023-12-29T03:55:05;5.90;;;4.50;;
83747;SDS011;73737;52.364;17.120;2023-12-29T03:57:34;8.00;;;4.50;;
83747;SDS011;73737;52.364;17.120;2023-12-29T04:00:04;6.10;;;3.70;;
83747;SDS011;73737;52.364;17.120;2023-12-29T04:02:40;6.70;;;4.00;;
83747;SDS011;73737;52.364;17.120;2023-12-29T04:05:09;6.70;;;4.20;;
83747;SDS011;73737;52.364;17.120;2023-12-29T04:07:41;6.80;;;4.50;;
83747;SDS011;73737;52.364;17.120;2023-12-29T04:10:10;8.30;;;4.60;;
83747;SDS011;73737;52.364;17.120;2023-12-29T04:12:39;7.00;;;4.50;;
83747;SDS011;73737;52.364;17.120;2023-12-29T04:15:07;6.60;;;4.00;;
83747;SDS011;73737;52.364;17.120;2023-12-29T04:17:36;5.30;;;4.20;;
83747;SDS011;73737;52.364;17.120;2023-12-29T04:20:05;6.50;;;4.50;;
83747;SDS011;73737;52.364;17.120;2023-12-29T04:22:34;5.40;;;3.50;;
83747;SDS011;73737;52.364;17.120;2023-12-29T04:25:03;5.60;;;3.80;;
83747;SDS011;73737;52.364;17.120;2023-12-29T04:27:32;5.40;;;3.60;;
83747;SDS011;73737;52.364;17.120;2023-12-29T04:30:01;7.10;;;4.00;;
83747;SDS011;73737;52.364;17.120;2023-12-29T04:32:31;7.40;;;4.50;;
83747;SDS011;73737;52.364;17.120;2023-12-29T04:35:00;5.80;;;4.10;;
83747;SDS011;73737;52.364;17.120;2023-12-29T04:37:28;5.90;;;3.80;;
83747;SDS011;73737;52.364;17.120;2023-12-29T04:39:57;6.40;;;4.00;;
83747;SDS011;73737;52.364;17.120;2023-12-29T04:42:25;5.80;;;4.20;;
83747;SDS011;73737;52.364;17.120;2023-12-29T04:44:54;6.20;;;4.30;;
83747;SDS011;73737;52.364;17.120;2023-12-29T04:47:22;5.20;;;3.80;;
83747;SDS011;73737;52.364;17.120;2023-12-29T04:49:51;4.80;;;3.50;;
83747;SDS011;73737;52.364;17.120;2023-12-29T04:52:19;6.20;;;3.50;;
83747;SDS011;73737;52.364;17.120;2023-12-29T04:54:48;6.80;;;4.10;;
83747;SDS011;73737;52.364;17.120;2023-12-29T04:57:16;6.40;;;3.50;;
83747;SDS011;73737;52.364;17.120;2023-12-29T04:59:45;8.60;;;4.30;;
83747;SDS011;73737;52.364;17.120;2023-12-29T05:02:13;5.70;;;3.60;;
83747;SDS011;73737;52.364;17.120;2023-12-29T05:04:42;5.60;;;4.10;;
83747;SDS011;73737;52.364;17.120;2023-12-29T05:07:11;6.50;;;3.70;;
83747;SDS011;73737;52.364;17.120;2023-12-29T05:09:39;5.30;;;3.90;;
83747;SDS011;73737;52.364;17.120;2023-12-29T05:12:08;4.70;;;3.40;;
83747;SDS011;73737;52.364;17.120;2023-12-29T05:14:37;6.70;;;3.90;;
83747;SDS011;73737;52.364;17.120;2023-12-29T05:17:05;5.70;;;3.50;;
83747;SDS011;73737;52.364;17.120;2023-12-29T05:19:34;5.20;;;3.90;;
83747;SDS011;73737;52.364;17.120;2023-12-29T05:22:03;4.20;;;3.70;;
83747;SDS011;73737;52.364;17.120;2023-12-29T05:24:31;6.30;;;3.80;;
83747;SDS011;73737;52.364;17.120;2023-12-29T05:27:00;7.20;;;3.50;;
83747;SDS011;73737;52.364;17.120;2023-12-29T05:29:28;4.00;;;3.60;;
83747;SDS011;73737;52.364;17.120;2023-12-29T05:31:57;6.80;;;4.40;;
83747;SDS011;73737;52.364;17.120;2023-12-29T05:34:25;4.00;;;3.50;;
83747;SDS011;73737;52.364;17.120;2023-12-29T05:36:54;4.80;;;3.60;;
83747;SDS011;73737;52.364;17.120;2023-12-29T05:39:23;6.50;;;3.40;;
83747;SDS011;73737;52.364;17.120;2023-12-29T05:41:51;6.10;;;3.60;;
83747;SDS011;73737;52.364;17.120;2023-12-29T05:44:20;5.00;;;3.40;;
83747;SDS011;73737;52.364;17.120;2023-12-29T05:46:48;5.50;;;3.80;;
83747;SDS011;73737;52.364;17.120;2023-12-29T05:49:17;5.30;;;3.50;;
83747;SDS011;73737;52.364;17.120;2023-12-29T05:51:45;4.70;;;3.70;;
83747;SDS011;73737;52.364;17.120;2023-12-29T05:54:14;5.60;;;3.70;;
83747;SDS011;73737;52.364;17.120;2023-12-29T05:56:43;4.90;;;3.90;;
83747;SDS011;73737;52.364;17.120;2023-12-29T05:59:12;5.40;;;3.80;;
83747;SDS011;73737;52.364;17.120;2023-12-29T06:01:40;6.60;;;4.30;;
83747;SDS011;73737;52.364;17.120;2023-12-29T06:04:10;4.80;;;3.80;;
83747;SDS011;73737;52.364;17.120;2023-12-29T06:06:38;7.10;;;4.20;;
83747;SDS011;73737;52.364;17.120;2023-12-29T06:09:10;4.50;;;3.50;;
83747;SDS011;73737;52.364;17.120;2023-12-29T06:11:38;4.50;;;3.70;;
83747;SDS011;73737;52.364;17.120;2023-12-29T06:14:07;6.20;;;3.60;;
83747;SDS011;73737;52.364;17.120;2023-12-29T06:16:36;6.90;;;3.40;;
83747;SDS011;73737;52.364;17.120;2023-12-29T06:19:04;5.60;;;3.30;;
83747;SDS011;73737;52.364;17.120;2023-12-29T06:21:33;4.60;;;3.40;;
83747;SDS011;73737;52.364;17.120;2023-12-29T06:24:01;5.10;;;3.70;;
83747;SDS011;73737;52.364;17.120;2023-12-29T06:26:30;4.80;;;3.50;;
83747;SDS011;73737;52.364;17.120;2023-12-29T06:28:58;6.60;;;3.80;;
83747;SDS011;73737;52.364;17.120;2023-12-29T06:31:27;5.80;;;3.80;;
83747;SDS011;73737;52.364;17.120;2023-12-29T06:33:56;5.50;;;3.80;;
83747;SDS011;73737;52.364;17.120;2023-12-29T06:36:24;5.00;;;3.40;;
83747;SDS011;73737;52.364;17.120;2023-12-29T06:38:53;8.90;;;3.80;;
83747;SDS011;73737;52.364;17.120;2023-12-29T06:41:22;8.90;;;4.40;;
83747;SDS011;73737;52.364;17.120;2023-12-29T06:43:51;5.40;;;3.90;;
83747;SDS011;73737;52.364;17.120;2023-12-29T06:46:19;6.40;;;3.60;;
83747;SDS011;73737;52.364;17.120;2023-12-29T06:48:48;5.50;;;4.20;;
83747;SDS011;73737;52.364;17.120;2023-12-29T06:51:17;6.10;;;3.90;;
83747;SDS011;73737;52.364;17.120;2023-12-29T06:53:47;5.60;;;3.60;;
83747;SDS011;73737;52.364;17.120;2023-12-29T06:56:15;7.50;;;3.90;;
83747;SDS011;73737;52.364;17.120;2023-12-29T06:58:44;6.80;;;3.30;;
83747;SDS011;73737;52.364;17.120;2023-12-29T07:01:13;6.50;;;3.90;;
83747;SDS011;73737;52.364;17.120;2023-12-29T07:03:44;5.40;;;3.60;;
83747;SDS011;73737;52.364;17.120;2023-12-29T07:06:12;5.20;;;3.40;;
83747;SDS011;73737;52.364;17.120;2023-12-29T07:08:41;5.60;;;3.60;;
83747;SDS011;73737;52.364;17.120;2023-12-29T07:11:10;4.60;;;3.10;;
83747;SDS011;73737;52.364;17.120;2023-12-29T07:13:40;4.50;;;3.50;;
83747;SDS011;73737;52.364;17.120;2023-12-29T07:16:08;5.50;;;3.40;;
83747;SDS011;73737;52.364;17.120;2023-12-29T07:18:37;4.50;;;3.60;;
83747;SDS011;73737;52.364;17.120;2023-12-29T07:21:05;5.00;;;3.40;;
83747;SDS011;73737;52.364;17.120;2023-12-29T07:23:34;5.30;;;3.90;;
83747;SDS011;73737;52.364;17.120;2023-12-29T07:26:02;4.90;;;3.50;;
83747;SDS011;73737;52.364;17.120;2023-12-29T07:28:31;5.50;;;3.80;;
83747;SDS011;73737;52.364;17.120;2023-12-29T07:31:00;4.70;;;3.60;;
83747;SDS011;73737;52.364;17.120;2023-12-29T07:33:30;6.20;;;3.70;;
83747;SDS011;73737;52.364;17.120;2023-12-29T07:35:59;7.00;;;3.80;;
83747;SDS011;73737;52.364;17.120;2023-12-29T07:38:28;6.90;;;4.20;;
83747;SDS011;73737;52.364;17.120;2023-12-29T07:40:56;6.30;;;4.00;;
83747;SDS011;73737;52.364;17.120;2023-12-29T07:43:25;7.20;;;4.90;;
83747;SDS011;73737;52.364;17.120;2023-12-29T07:45:53;5.60;;;4.30;;
83747;SDS011;73737;52.364;17.120;2023-12-29T07:48:22;7.90;;;4.20;;
83747;SDS011;73737;52.364;17.120;2023-12-29T07:50:51;6.30;;;3.70;;
83747;SDS011;73737;52.364;17.120;2023-12-29T07:53:20;5.90;;;4.30;;
83747;SDS011;73737;52.364;17.120;2023-12-29T07:55:48;9.90;;;6.50;;
83747;SDS011;73737;52.364;17.120;2023-12-29T07:58:18;6.90;;;4.80;;
83747;SDS011;73737;52.364;17.120;2023-12-29T08:00:46;6.70;;;5.10;;
83747;SDS011;73737;52.364;17.120;2023-12-29T08:03:15;7.90;;;5.00;;
83747;SDS011;73737;52.364;17.120;2023-12-29T08:05:44;9.20;;;5.40;;
83747;SDS011;73737;52.364;17.120;2023-12-29T08:08:14;7.60;;;5.00;;
83747;SDS011;73737;52.364;17.120;2023-12-29T08:10:43;6.90;;;4.70;;
83747;SDS011;73737;52.364;17.120;2023-12-29T08:13:11;8.20;;;4.80;;
83747;SDS011;73737;52.364;17.120;2023-12-29T08:15:40;6.00;;;4.20;;
83747;SDS011;73737;52.364;17.120;2023-12-29T08:18:08;6.50;;;4.00;;
83747;SDS011;73737;52.364;17.120;2023-12-29T08:20:37;5.90;;;3.80;;
83747;SDS011;73737;52.364;17.120;2023-12-29T08:23:06;5.60;;;3.90;;
83747;SDS011;73737;52.364;17.120;2023-12-29T08:25:34;5.40;;;3.60;;
83747;SDS011;73737;52.364;17.120;2023-12-29T08:28:05;4.60;;;3.60;;
83747;SDS011;73737;52.364;17.120;2023-12-29T08:30:34;6.50;;;4.20;;
83747;SDS011;73737;52.364;17.120;2023-12-29T08:33:05;5.50;;;3.60;;
83747;SDS011;73737;52.364;17.120;2023-12-29T08:35:34;5.90;;;3.40;;
83747;SDS011;73737;52.364;17.120;2023-12-29T08:38:02;7.00;;;3.50;;
83747;SDS011;73737;52.364;17.120;2023-12-29T08:40:31;5.90;;;3.50;;
83747;SDS011;73737;52.364;17.120;2023-12-29T08:43:00;5.60;;;4.20;;
83747;SDS011;73737;52.364;17.120;2023-12-29T08:45:34;5.10;;;3.60;;
83747;SDS011;73737;52.364;17.120;2023-12-29T08:48:09;7.40;;;4.30;;
83747;SDS011;73737;52.364;17.120;2023-12-29T08:50:38;6.00;;;3.70;;
83747;SDS011;73737;52.364;17.120;2023-12-29T08:53:07;5.60;;;3.80;;
83747;SDS011;73737;52.364;17.120;2023-12-29T08:55:40;5.00;;;3.70;;
83747;SDS011;73737;52.364;17.120;2023-12-29T08:58:13;5.60;;;4.30;;
83747;SDS011;73737;52.364;17.120;2023-12-29T09:00:41;5.70;;;4.60;;
83747;SDS011;73737;52.364;17.120;2023-12-29T09:03:11;7.60;;;4.80;;
83747;SDS011;73737;52.364;17.120;2023-12-29T09:05:40;7.10;;;3.80;;
83747;SDS011;73737;52.364;17.120;2023-12-29T09:08:09;5.90;;;3.50;;
83747;SDS011;73737;52.364;17.120;2023-12-29T09:10:38;7.00;;;3.70;;
83747;SDS011;73737;52.364;17.120;2023-12-29T09:13:07;5.20;;;3.70;;
83747;SDS011;73737;52.364;17.120;2023-12-29T09:15:37;5.30;;;3.50;;
83747;SDS011;73737;52.364;17.120;2023-12-29T09:18:07;4.50;;;2.90;;
83747;SDS011;73737;52.364;17.120;2023-12-29T09:20:35;4.20;;;3.20;;
83747;SDS011;73737;52.364;17.120;2023-12-29T09:23:04;6.60;;;3.60;;
83747;SDS011;73737;52.364;17.120;2023-12-29T09:25:33;5.00;;;3.20;;
83747;SDS011;73737;52.364;17.120;2023-12-29T09:28:01;6.40;;;3.50;;
83747;SDS011;73737;52.364;17.120;2023-12-29T09:30:30;7.40;;;4.60;;
83747;SDS011;73737;52.364;17.120;2023-12-29T09:32:59;4.70;;;2.80;;
83747;SDS011;73737;52.364;17.120;2023-12-29T09:35:28;4.10;;;2.90;;
83747;SDS011;73737;52.364;17.120;2023-12-29T09:37:57;3.80;;;2.90;;
83747;SDS011;73737;52.364;17.120;2023-12-29T09:40:27;5.20;;;3.20;;
83747;SDS011;73737;52.364;17.120;2023-12-29T09:42:56;3.70;;;2.70;;
83747;SDS011;73737;52.364;17.120;2023-12-29T09:45:25;3.90;;;2.70;;
83747;SDS011;73737;52.364;17.120;2023-12-29T09:47:54;4.60;;;2.70;;
83747;SDS011;73737;52.364;17.120;2023-12-29T09:50:29;4.20;;;2.80;;
83747;SDS011;73737;52.364;17.120;2023-12-29T09:52:57;3.60;;;2.60;;
83747;SDS011;73737;52.364;17.120;2023-12-29T09:55:26;4.80;;;3.00;;
83747;SDS011;73737;52.364;17.120;2023-12-29T09:57:55;5.40;;;2.50;;
83747;SDS011;73737;52.364;17.120;2023-12-29T10:00:26;3.10;;;2.40;;
83747;SDS011;73737;52.364;17.120;2023-12-29T10:02:55;4.50;;;2.80;;
83747;SDS011;73737;52.364;17.120;2023-12-29T10:05:24;3.70;;;3.00;;
83747;SDS011;73737;52.364;17.120;2023-12-29T10:07:53;4.30;;;2.90;;
83747;SDS011;73737;52.364;17.120;2023-12-29T10:10:22;4.30;;;2.20;;
83747;SDS011;73737;52.364;17.120;2023-12-29T10:12:55;5.40;;;2.50;;
83747;SDS011;73737;52.364;17.120;2023-12-29T10:15:28;3.40;;;2.50;;
83747;SDS011;73737;52.364;17.120;2023-12-29T10:18:22;3.40;;;2.20;;
83747;SDS011;73737;52.364;17.120;2023-12-29T10:21:07;3.70;;;2.60;;
83747;SDS011;73737;52.364;17.120;2023-12-29T10:24:05;3.30;;;2.30;;
83747;SDS011;73737;52.364;17.120;2023-12-29T10:26:36;3.90;;;2.70;;
83747;SDS011;73737;52.364;17.120;2023-12-29T10:29:04;5.10;;;2.40;;
83747;SDS011;73737;52.364;17.120;2023-12-29T10:31:33;4.30;;;2.50;;
83747;SDS011;73737;52.364;17.120;2023-12-29T10:36:59;3.50;;;2.40;;
83747;SDS011;73737;52.364;17.120;2023-12-29T10:39:37;3.90;;;2.80;;
83747;SDS011;73737;52.364;17.120;2023-12-29T10:42:06;4.10;;;2.70;;
83747;SDS011;73737;52.364;17.120;2023-12-29T10:44:40;5.60;;;3.30;;
83747;SDS011;73737;52.364;17.120;2023-12-29T10:47:10;4.40;;;2.60;;
83747;SDS011;73737;52.364;17.120;2023-12-29T10:51:16;5.60;;;3.00;;
83747;SDS011;73737;52.364;17.120;2023-12-29T10:53:57;4.20;;;3.00;;
83747;SDS011;73737;52.364;17.120;2023-12-29T10:56:28;4.40;;;2.60;;
83747;SDS011;73737;52.364;17.120;2023-12-29T10:59:02;4.90;;;2.90;;
83747;SDS011;73737;52.364;17.120;2023-12-29T11:01:36;4.60;;;2.60;;
83747;SDS011;73737;52.364;17.120;2023-12-29T11:04:06;4.20;;;2.30;;
83747;SDS011;73737;52.364;17.120;2023-12-29T11:06:42;3.60;;;2.60;;
83747;SDS011;73737;52.364;17.120;2023-12-29T11:12:00;5.80;;;3.00;;
83747;SDS011;73737;52.364;17.120;2023-12-29T11:14:31;4.00;;;2.70;;
83747;SDS011;73737;52.364;17.120;2023-12-29T11:17:01;5.40;;;3.10;;
83747;SDS011;73737;52.364;17.120;2023-12-29T11:19:30;6.40;;;3.30;;
83747;SDS011;73737;52.364;17.120;2023-12-29T11:22:00;4.40;;;2.50;;
83747;SDS011;73737;52.364;17.120;2023-12-29T11:24:31;4.00;;;2.30;;
83747;SDS011;73737;52.364;17.120;2023-12-29T11:27:00;3.70;;;2.50;;
83747;SDS011;73737;52.364;17.120;2023-12-29T11:29:30;4.00;;;2.50;;
83747;SDS011;73737;52.364;17.120;2023-12-29T11:31:59;5.50;;;2.80;;
83747;SDS011;73737;52.364;17.120;2023-12-29T11:34:33;4.70;;;2.70;;
83747;SDS011;73737;52.364;17.120;2023-12-29T11:43:00;6.00;;;2.90;;
83747;SDS011;73737;52.364;17.120;2023-12-29T11:45:31;8.70;;;3.30;;
83747;SDS011;73737;52.364;17.120;2023-12-29T11:48:04;5.00;;;2.70;;
83747;SDS011;73737;52.364;17.120;2023-12-29T11:50:37;5.20;;;2.50;;
83747;SDS011;73737;52.364;17.120;2023-12-29T11:53:08;5.20;;;2.40;;
83747;SDS011;73737;52.364;17.120;2023-12-29T11:55:38;6.20;;;3.00;;
83747;SDS011;73737;52.364;17.120;2023-12-29T11:58:23;5.40;;;3.00;;
83747;SDS011;73737;52.364;17.120;2023-12-29T12:00:53;4.60;;;2.80;;
83747;SDS011;73737;52.364;17.120;2023-12-29T12:03:30;6.20;;;2.60;;
83747;SDS011;73737;52.364;17.120;2023-12-29T12:06:02;5.20;;;2.60;;
83747;SDS011;73737;52.364;17.120;2023-12-29T12:08:32;4.80;;;3.20;;
83747;SDS011;73737;52.364;17.120;2023-12-29T12:13:57;4.80;;;2.70;;
83747;SDS011;73737;52.364;17.120;2023-12-29T12:19:13;5.50;;;2.70;;
83747;SDS011;73737;52.364;17.120;2023-12-29T12:21:42;3.50;;;2.30;;
83747;SDS011;73737;52.364;17.120;2023-12-29T12:24:15;4.90;;;2.40;;
83747;SDS011;73737;52.364;17.120;2023-12-29T12:26:47;6.30;;;3.00;;
83747;SDS011;73737;52.364;17.120;2023-12-29T12:29:17;6.10;;;3.10;;
83747;SDS011;73737;52.364;17.120;2023-12-29T12:31:56;5.30;;;3.10;;
83747;SDS011;73737;52.364;17.120;2023-12-29T12:34:25;4.30;;;2.80;;
83747;SDS011;73737;52.364;17.120;2023-12-29T12:36:54;6.00;;;2.90;;
83747;SDS011;73737;52.364;17.120;2023-12-29T12:39:24;3.50;;;2.50;;
83747;SDS011;73737;52.364;17.120;2023-12-29T12:42:06;4.70;;;2.50;;
83747;SDS011;73737;52.364;17.120;2023-12-29T12:44:49;4.20;;;2.80;;
83747;SDS011;73737;52.364;17.120;2023-12-29T12:47:25;5.80;;;2.90;;
83747;SDS011;73737;52.364;17.120;2023-12-29T12:49:55;4.00;;;2.40;;
83747;SDS011;73737;52.364;17.120;2023-12-29T12:52:24;5.90;;;2.60;;
83747;SDS011;73737;52.364;17.120;2023-12-29T12:54:53;4.10;;;3.00;;
83747;SDS011;73737;52.364;17.120;2023-12-29T12:57:23;3.70;;;2.50;;
83747;SDS011;73737;52.364;17.120;2023-12-29T12:59:52;5.40;;;3.00;;
83747;SDS011;73737;52.364;17.120;2023-12-29T13:02:21;4.70;;;2.40;;
83747;SDS011;73737;52.364;17.120;2023-12-29T13:04:51;5.00;;;2.80;;
83747;SDS011;73737;52.364;17.120;2023-12-29T13:07:21;5.50;;;3.20;;
83747;SDS011;73737;52.364;17.120;2023-12-29T13:09:52;4.50;;;2.60;;
83747;SDS011;73737;52.364;17.120;2023-12-29T13:12:21;6.30;;;3.50;;
83747;SDS011;73737;52.364;17.120;2023-12-29T13:14:50;4.30;;;2.30;;
83747;SDS011;73737;52.364;17.120;2023-12-29T13:17:20;6.00;;;3.00;;
83747;SDS011;73737;52.364;17.120;2023-12-29T13:19:57;3.80;;;2.80;;
83747;SDS011;73737;52.364;17.120;2023-12-29T19:59:09;8.00;;;3.80;;
83747;SDS011;73737;52.364;17.120;2023-12-29T20:01:42;6.60;;;3.20;;
83747;SDS011;73737;52.364;17.120;2023-12-29T20:04:12;7.10;;;3.40;;
83747;SDS011;73737;52.364;17.120;2023-12-29T20:06:41;7.10;;;3.80;;
83747;SDS011;73737;52.364;17.120;2023-12-29T20:09:10;6.60;;;4.00;;
83747;SDS011;73737;52.364;17.120;2023-12-29T20:11:40;7.70;;;4.10;;
83747;SDS011;73737;52.364;17.120;2023-12-29T20:14:09;8.20;;;4.00;;
83747;SDS011;73737;52.364;17.120;2023-12-29T20:16:41;7.60;;;3.60;;
83747;SDS011;73737;52.364;17.120;2023-12-29T20:19:10;8.00;;;3.70;;
83747;SDS011;73737;52.364;17.120;2023-12-29T20:21:39;7.30;;;3.20;;
83747;SDS011;73737;52.364;17.120;2023-12-29T20:24:08;7.80;;;3.40;;
83747;SDS011;73737;52.364;17.120;2023-12-29T20:26:37;6.20;;;4.10;;
83747;SDS011;73737;52.364;17.120;2023-12-29T20:29:08;7.10;;;3.70;;
83747;SDS011;73737;52.364;17.120;2023-12-29T20:31:37;7.50;;;4.20;;
83747;SDS011;73737;52.364;17.120;2023-12-29T20:34:06;8.20;;;4.30;;
83747;SDS011;73737;52.364;17.120;2023-12-29T20:36:35;6.60;;;3.60;;
83747;SDS011;73737;52.364;17.120;2023-12-29T20:39:04;6.40;;;3.50;;
83747;SDS011;73737;52.364;17.120;2023-12-29T20:41:35;15.80;;;7.20;;
83747;SDS011;73737;52.364;17.120;2023-12-29T20:44:05;11.40;;;5.50;;
83747;SDS011;73737;52.364;17.120;2023-12-29T20:46:39;15.20;;;5.00;;
83747;SDS011;73737;52.364;17.120;2023-12-29T20:49:09;10.60;;;5.40;;
83747;SDS011;73737;52.364;17.120;2023-12-29T20:51:40;6.90;;;3.30;;
83747;SDS011;73737;52.364;17.120;2023-12-29T20:54:09;10.20;;;4.00;;
83747;SDS011;73737;52.364;17.120;2023-12-29T20:56:41;9.80;;;4.30;;
83747;SDS011;73737;52.364;17.120;2023-12-29T20:59:12;9.10;;;4.50;;
83747;SDS011;73737;52.364;17.120;2023-12-29T21:02:31;8.90;;;3.80;;
83747;SDS011;73737;52.364;17.120;2023-12-29T21:05:01;7.10;;;3.30;;
83747;SDS011;73737;52.364;17.120;2023-12-29T21:07:37;7.00;;;3.90;;
83747;SDS011;73737;52.364;17.120;2023-12-29T21:10:07;7.30;;;4.20;;
83747;SDS011;73737;52.364;17.120;2023-12-29T21:12:41;6.80;;;3.50;;
83747;SDS011;73737;52.364;17.120;2023-12-29T21:15:15;8.00;;;5.30;;
83747;SDS011;73737;52.364;17.120;2023-12-29T21:17:45;7.80;;;4.00;;
83747;SDS011;73737;52.364;17.120;2023-12-29T21:20:15;7.50;;;4.00;;
83747;SDS011;73737;52.364;17.120;2023-12-29T21:22:53;7.30;;;3.80;;
83747;SDS011;73737;52.364;17.120;2023-12-29T21:25:23;6.00;;;3.80;;
83747;SDS011;73737;52.364;17.120;2023-12-29T21:27:53;8.80;;;5.10;;
83747;SDS011;73737;52.364;17.120;2023-12-29T21:30:21;7.60;;;4.00;;
83747;SDS011;73737;52.364;17.120;2023-12-29T21:32:52;8.50;;;3.80;;
83747;SDS011;73737;52.364;17.120;2023-12-29T21:35:25;6.10;;;3.40;;
83747;SDS011;73737;52.364;17.120;2023-12-29T21:37:58;8.40;;;4.00;;
83747;SDS011;73737;52.364;17.120;2023-12-29T21:40:31;7.50;;;3.80;;
83747;SDS011;73737;52.364;17.120;2023-12-29T21:43:08;6.60;;;3.80;;
83747;SDS011;73737;52.364;17.120;2023-12-29T21:45:37;4.90;;;2.80;;
83747;SDS011;73737;52.364;17.120;2023-12-29T21:48:10;6.70;;;3.60;;
83747;SDS011;73737;52.364;17.120;2023-12-29T21:50:41;6.60;;;3.40;;
83747;SDS011;73737;52.364;17.120;2023-12-29T21:53:13;6.90;;;3.30;;